createdAt,value
2022-08-23T00:01:47.835Z,75.35
2022-08-23T00:04:19.699Z,75.92
2022-08-23T00:06:49.067Z,76.78
2022-08-23T00:09:16.432Z,76.60
2022-08-23T00:11:50.407Z,76.20
2022-08-23T00:14:27.627Z,75.91
2022-08-23T00:16:55.219Z,76.56
2022-08-23T00:19:22.988Z,76.73
2022-08-23T00:25:18.215Z,76.53
2022-08-23T00:27:46.901Z,76.84
2022-08-23T00:30:32.543Z,76.80
2022-08-23T00:33:10.376Z,77.30
2022-08-23T00:38:34.196Z,77.48
2022-08-23T00:41:19.488Z,77.59
2022-08-23T00:44:06.150Z,78.21
2022-08-23T00:47:23.464Z,79.23
2022-08-23T00:49:58.190Z,78.50
2022-08-23T00:52:31.920Z,78.77
2022-08-23T00:54:59.181Z,78.65
2022-08-23T00:57:27.516Z,78.95
2022-08-23T00:59:54.033Z,78.35
2022-08-23T01:02:20.671Z,78.59
2022-08-23T01:04:54.072Z,79.22
2022-08-23T01:07:47.646Z,78.97
2022-08-23T01:10:29.743Z,78.36
2022-08-23T01:13:20.541Z,78.06
2022-08-23T01:16:03.203Z,78.40
2022-08-23T01:18:31.287Z,78.97
2022-08-23T01:21:29.127Z,78.92
2022-08-23T01:26:55.660Z,79.63
2022-08-23T01:29:35.054Z,79.98
2022-08-23T01:32:01.778Z,80.56
2022-08-23T01:34:29.106Z,80.02
2022-08-23T01:36:56.573Z,79.70
2022-08-23T01:39:23.306Z,80.07
2022-08-23T01:41:51.257Z,80.08
2022-08-23T01:44:18.517Z,80.09
2022-08-23T01:46:47.210Z,80.34
2022-08-23T01:49:14.209Z,80.18
2022-08-23T01:51:49.775Z,80.75
2022-08-23T01:54:16.262Z,80.41
2022-08-23T01:56:43.892Z,79.98
2022-08-23T01:59:12.408Z,80.22
2022-08-23T02:01:39.043Z,79.93
2022-08-23T02:04:05.652Z,80.66
2022-08-23T02:06:32.817Z,80.67
2022-08-23T02:09:03.588Z,81.30
2022-08-23T02:11:34.267Z,81.09
2022-08-23T02:14:03.819Z,81.09
2022-08-23T02:16:34.197Z,81.43
2022-08-23T02:19:02.405Z,80.95
2022-08-23T02:21:33.127Z,81.47
2022-08-23T02:24:04.289Z,81.86
2022-08-23T02:26:31.474Z,82.02
2022-08-23T02:28:58.371Z,83.07
2022-08-23T02:31:26.130Z,82.79
2022-08-23T02:36:38.456Z,82.86
2022-08-23T02:39:06.912Z,82.93
2022-08-23T02:41:34.930Z,83.03
2022-08-23T02:44:01.958Z,82.47
2022-08-23T02:46:28.737Z,82.79
2022-08-23T02:48:56.391Z,82.96
2022-08-23T02:51:23.919Z,81.73
2022-08-23T02:53:51.284Z,82.69
2022-08-23T02:56:21.444Z,82.53
2022-08-23T02:58:54.531Z,83.43
2022-08-23T03:01:30.611Z,82.75
2022-08-23T03:03:58.738Z,83.27
2022-08-23T03:06:26.423Z,82.18
2022-08-23T03:08:54.853Z,81.68
2022-08-23T03:11:22.448Z,81.98
2022-08-23T03:13:50.301Z,82.00
2022-08-23T03:16:17.343Z,82.93
2022-08-23T03:18:44.205Z,83.39
2022-08-23T03:21:11.233Z,84.07
2022-08-23T03:23:39.211Z,84.74
2022-08-23T03:26:09.234Z,85.31
2022-08-23T03:28:36.968Z,85.83
2022-08-23T03:31:04.079Z,84.53
2022-08-23T03:33:30.631Z,84.97
2022-08-23T03:36:02.438Z,84.92
2022-08-23T03:38:29.205Z,84.17
2022-08-23T03:40:55.678Z,84.10
2022-08-23T03:43:22.215Z,84.27
2022-08-23T03:45:48.764Z,84.40
2022-08-23T03:48:15.291Z,85.04
2022-08-23T03:50:41.721Z,84.86
2022-08-23T03:53:08.410Z,84.65
2022-08-23T03:55:42.241Z,85.43
2022-08-23T03:58:10.132Z,85.61
2022-08-23T04:00:36.856Z,84.89
2022-08-23T04:03:03.629Z,84.29
2022-08-23T04:05:30.089Z,84.33
2022-08-23T04:07:56.542Z,84.25
2022-08-23T04:10:23.359Z,84.45
2022-08-23T04:12:49.938Z,84.98
2022-08-23T04:15:16.583Z,84.63
2022-08-23T04:17:43.018Z,84.82
2022-08-23T04:20:09.990Z,84.61
2022-08-23T04:22:36.534Z,84.40
2022-08-23T04:25:03.696Z,85.40
2022-08-23T04:27:30.141Z,85.57
2022-08-23T04:29:56.570Z,85.68
2022-08-23T04:32:26.661Z,85.26
2022-08-23T04:34:55.105Z,86.14
2022-08-23T04:37:21.695Z,86.41
2022-08-23T04:40:06.983Z,87.37
2022-08-23T04:42:33.449Z,87.14
2022-08-23T04:45:01.380Z,86.20
2022-08-23T04:47:27.898Z,86.27
2022-08-23T04:49:54.323Z,86.13
2022-08-23T04:52:20.894Z,85.09
2022-08-23T04:54:47.355Z,82.94
2022-08-23T04:57:15.443Z,81.58
2022-08-23T04:59:42.853Z,79.76
2022-08-23T05:02:09.344Z,78.63
2022-08-23T05:04:35.781Z,78.21
2022-08-23T05:07:02.331Z,76.21
2022-08-23T05:09:29.126Z,75.01
2022-08-23T05:11:55.648Z,74.42
2022-08-23T05:14:22.103Z,72.80
2022-08-23T05:16:48.523Z,71.73
2022-08-23T05:19:15.032Z,70.39
2022-08-23T05:21:41.608Z,68.76
2022-08-23T05:24:08.102Z,66.48
2022-08-23T05:26:40.090Z,66.94
2022-08-23T05:29:06.985Z,65.44
2022-08-23T05:31:33.587Z,65.13
2022-08-23T05:34:00.124Z,62.94
2022-08-23T05:36:26.614Z,60.78
2022-08-23T05:38:53.473Z,60.24
2022-08-23T05:41:21.073Z,59.59
2022-08-23T05:43:48.725Z,58.46
2022-08-23T05:46:18.475Z,58.43
2022-08-23T05:48:48.526Z,57.76
2022-08-23T05:51:21.333Z,57.16
2022-08-23T05:53:49.955Z,55.56
2022-08-23T05:56:22.764Z,53.88
2022-08-23T05:58:51.338Z,54.35
2022-08-23T06:01:18.980Z,52.56
2022-08-23T06:03:45.569Z,50.33
2022-08-23T06:06:13.415Z,52.34
2022-08-23T06:08:40.271Z,51.91
2022-08-23T06:11:11.418Z,50.18
2022-08-23T06:13:43.560Z,51.10
2022-08-23T06:16:14.861Z,50.14
2022-08-23T06:18:42.054Z,48.15
2022-08-23T06:21:11.694Z,48.42
2022-08-23T06:23:38.670Z,48.21
2022-08-23T06:26:14.110Z,46.52
2022-08-23T06:28:50.470Z,46.78
2022-08-23T06:31:39.260Z,46.17
2022-08-23T06:34:05.748Z,47.22
2022-08-23T06:36:32.206Z,45.84
2022-08-23T06:38:58.643Z,45.38
2022-08-23T06:41:25.116Z,44.63
2022-08-23T06:43:51.819Z,43.86
2022-08-23T06:46:25.009Z,42.55
2022-08-23T06:48:55.626Z,43.76
2022-08-23T06:51:26.709Z,44.71
2022-08-23T06:53:55.193Z,44.75
2022-08-23T06:56:23.206Z,42.83
2022-08-23T06:58:50.057Z,43.08
2022-08-23T07:01:47.739Z,45.18
2022-08-23T07:04:19.219Z,44.34
2022-08-23T07:06:46.068Z,43.11
2022-08-23T07:09:13.145Z,44.58
2022-08-23T07:11:39.631Z,42.54
2022-08-23T07:14:08.817Z,42.38
2022-08-23T07:16:43.443Z,44.95
2022-08-23T07:19:10.398Z,44.66
2022-08-23T07:21:37.865Z,44.13
2022-08-23T07:24:04.653Z,43.17
2022-08-23T07:26:31.318Z,40.26
2022-08-23T07:28:57.979Z,38.80
2022-08-23T07:31:28.502Z,41.35
2022-08-23T07:33:58.881Z,39.99
2022-08-23T07:36:27.994Z,41.03
2022-08-23T07:38:55.802Z,40.88
2022-08-23T07:41:29.032Z,38.86
2022-08-23T07:43:58.369Z,38.94
2022-08-23T07:46:26.800Z,38.15
2022-08-23T07:48:54.821Z,38.37
2022-08-23T07:51:22.119Z,35.48
2022-08-23T07:53:49.058Z,36.30
2022-08-23T07:56:17.869Z,36.52
2022-08-23T07:58:44.516Z,35.10
2022-08-23T08:01:19.888Z,35.94
2022-08-23T08:03:53.133Z,34.88
2022-08-23T08:06:24.555Z,31.45
2022-08-23T08:08:52.114Z,32.61
2022-08-23T08:11:20.085Z,31.86
2022-08-23T08:13:49.085Z,31.37
2022-08-23T08:16:28.135Z,33.32
2022-08-23T08:18:56.819Z,32.66
2022-08-23T08:21:23.481Z,34.19
2022-08-23T08:23:50.196Z,33.57
2022-08-23T08:26:17.130Z,31.89
2022-08-23T08:28:45.337Z,32.71
2022-08-23T08:31:13.238Z,31.48
2022-08-23T08:33:40.655Z,32.00
2022-08-23T08:36:07.962Z,32.46
2022-08-23T08:38:38.950Z,32.13
2022-08-23T08:41:21.959Z,32.70
2022-08-23T08:44:05.341Z,31.76
2022-08-23T08:46:45.301Z,32.64
2022-08-23T08:49:32.247Z,31.04
2022-08-23T08:52:09.712Z,29.43
2022-08-23T08:54:37.706Z,29.49
2022-08-23T08:57:07.827Z,28.90
2022-08-23T09:00:01.192Z,29.96
2022-08-23T09:02:34.108Z,28.33
2022-08-23T09:05:04.036Z,27.78
2022-08-23T09:07:40.479Z,28.08
2022-08-23T09:10:17.419Z,28.37
2022-08-23T09:13:05.294Z,27.39
2022-08-23T09:15:52.783Z,29.63
2022-08-23T09:18:19.322Z,29.16
2022-08-23T09:20:51.079Z,28.70
2022-08-23T09:23:35.456Z,29.06
2022-08-23T09:26:15.596Z,27.34
2022-08-23T09:28:43.299Z,29.16
2022-08-23T09:31:09.824Z,27.48
2022-08-23T09:33:45.953Z,28.52
2022-08-23T09:36:23.299Z,29.93
2022-08-23T09:38:58.843Z,31.15
2022-08-23T09:41:33.289Z,28.32
2022-08-23T09:44:02.446Z,33.05
2022-08-23T09:46:31.797Z,30.85
2022-08-23T09:49:01.189Z,30.52
2022-08-23T09:51:42.883Z,31.48
2022-08-23T09:54:18.269Z,29.67
2022-08-23T09:56:52.378Z,30.80
2022-08-23T09:59:28.084Z,31.21
2022-08-23T10:01:57.830Z,31.62
2022-08-23T10:04:30.000Z,30.91
2022-08-23T10:06:56.999Z,29.85
2022-08-23T10:09:30.034Z,31.15
2022-08-23T10:11:58.927Z,30.56
2022-08-23T10:14:30.531Z,30.02
2022-08-23T10:17:14.773Z,29.25
2022-08-23T10:20:12.042Z,29.91
2022-08-23T10:22:51.639Z,30.22
2022-08-23T10:25:33.658Z,29.58
2022-08-23T10:28:21.801Z,30.03
2022-08-23T10:30:58.036Z,30.55
2022-08-23T10:34:12.727Z,30.67
2022-08-23T10:36:58.494Z,31.21
2022-08-23T10:39:30.043Z,31.13
2022-08-23T10:42:18.863Z,31.85
2022-08-23T10:44:58.888Z,32.62
2022-08-23T10:48:07.485Z,32.59
2022-08-23T10:50:55.812Z,32.62
2022-08-23T10:53:27.596Z,32.21
2022-08-23T10:56:03.369Z,32.83
2022-08-23T10:58:43.488Z,32.39
2022-08-23T11:01:18.850Z,32.31
2022-08-23T11:03:58.434Z,33.01
2022-08-23T11:06:44.529Z,31.21
2022-08-23T11:09:17.183Z,31.30
2022-08-23T11:11:46.178Z,31.44
2022-08-23T11:14:40.717Z,31.50
2022-08-23T11:17:11.814Z,32.24
2022-08-23T11:19:55.854Z,31.86
2022-08-23T11:22:52.692Z,31.84
2022-08-23T11:25:19.135Z,32.32
2022-08-23T11:27:46.249Z,31.88
2022-08-23T11:30:35.009Z,31.01
2022-08-23T11:33:17.361Z,30.62
2022-08-23T11:36:02.895Z,30.75
2022-08-23T11:38:47.715Z,30.27
2022-08-23T11:41:20.169Z,30.23
2022-08-23T11:44:13.312Z,31.67
2022-08-23T11:46:55.817Z,31.13
2022-08-23T11:49:40.432Z,30.48
2022-08-23T11:52:24.359Z,30.58
2022-08-23T11:55:24.922Z,30.84
2022-08-23T11:58:15.395Z,31.05
2022-08-23T12:01:06.139Z,30.21
2022-08-23T12:03:44.190Z,31.00
2022-08-23T12:06:34.196Z,31.42
2022-08-23T12:09:30.465Z,31.58
2022-08-23T12:11:56.870Z,31.59
2022-08-23T12:14:46.550Z,31.37
2022-08-23T12:17:12.968Z,31.03
2022-08-23T12:20:16.434Z,30.71
2022-08-23T12:23:02.449Z,30.25
2022-08-23T12:25:31.683Z,30.74
2022-08-23T12:28:21.874Z,29.91
2022-08-23T12:31:00.406Z,30.99
2022-08-23T12:34:02.608Z,30.17
2022-08-23T12:36:38.842Z,29.68
2022-08-23T12:39:22.109Z,30.56
2022-08-23T12:42:11.406Z,29.82
2022-08-23T12:44:37.964Z,30.10
2022-08-23T12:47:31.397Z,30.25
2022-08-23T12:50:20.480Z,30.72
2022-08-23T12:52:58.140Z,30.68
2022-08-23T12:55:33.964Z,31.06
2022-08-23T12:58:00.999Z,30.18
2022-08-23T13:00:35.413Z,30.66
2022-08-23T13:03:06.583Z,29.91
2022-08-23T13:05:38.487Z,30.39
2022-08-23T13:08:10.309Z,30.15
2022-08-23T13:10:40.582Z,30.59
2022-08-23T13:13:12.062Z,29.72
2022-08-23T13:15:49.544Z,29.69
2022-08-23T13:18:29.527Z,30.57
2022-08-23T13:21:24.943Z,30.85
2022-08-23T13:23:55.318Z,31.73
2022-08-23T13:26:44.073Z,30.61
2022-08-23T13:29:23.988Z,30.03
2022-08-23T13:32:02.640Z,30.30
2022-08-23T13:34:34.682Z,30.15
2022-08-23T13:37:24.714Z,29.62
2022-08-23T13:39:55.872Z,29.76
2022-08-23T13:42:29.093Z,30.70
2022-08-23T13:44:55.567Z,30.23
2022-08-23T13:47:25.945Z,29.41
2022-08-23T13:49:54.450Z,28.89
2022-08-23T13:55:08.832Z,28.77
2022-08-23T13:57:38.676Z,29.23
2022-08-23T14:00:09.024Z,29.15
2022-08-23T14:02:35.954Z,28.66
2022-08-23T14:05:03.708Z,28.57
2022-08-23T14:07:30.371Z,29.47
2022-08-23T14:09:57.554Z,28.01
2022-08-23T14:12:35.386Z,29.78
2022-08-23T14:15:04.152Z,29.54
2022-08-23T14:17:35.569Z,29.80
2022-08-23T14:22:50.613Z,31.04
2022-08-23T14:25:17.196Z,30.80
2022-08-23T14:27:46.087Z,30.63
2022-08-23T14:30:23.818Z,30.72
2022-08-23T14:32:56.878Z,30.89
2022-08-23T14:35:24.216Z,31.27
2022-08-23T14:38:06.069Z,31.63
2022-08-23T14:40:34.930Z,31.16
2022-08-23T14:43:01.614Z,32.05
2022-08-23T14:45:28.322Z,31.25
2022-08-23T14:47:54.932Z,31.54
2022-08-23T14:50:21.690Z,31.68
2022-08-23T14:52:48.380Z,31.82
2022-08-23T14:55:15.600Z,32.22
2022-08-23T14:57:42.093Z,32.04
2022-08-23T15:00:13.785Z,32.06
2022-08-23T15:02:44.364Z,32.06
2022-08-23T15:05:12.654Z,31.77
2022-08-23T15:07:39.846Z,31.48
2022-08-23T15:10:07.574Z,31.99
2022-08-23T15:15:21.947Z,32.30
2022-08-23T15:17:52.865Z,31.73
2022-08-23T15:20:31.577Z,31.68
2022-08-23T15:22:58.609Z,32.05
2022-08-23T15:25:28.608Z,33.16
2022-08-23T15:27:55.969Z,33.35
2022-08-23T15:30:23.783Z,33.06
2022-08-23T15:32:52.671Z,33.07
2022-08-23T15:35:23.882Z,33.65
2022-08-23T15:37:50.465Z,33.36
2022-08-23T15:40:16.993Z,33.36
2022-08-23T15:42:43.707Z,33.81
2022-08-23T15:45:10.773Z,34.16
2022-08-23T15:47:46.582Z,34.32
2022-08-23T15:50:14.000Z,34.47
2022-08-23T15:52:40.426Z,33.85
2022-08-23T15:55:07.320Z,34.67
2022-08-23T15:57:42.921Z,34.33
2022-08-23T16:00:12.044Z,34.58
2022-08-23T16:03:04.481Z,34.66
2022-08-23T16:05:25.449Z,34.12
2022-08-23T16:07:55.250Z,34.04
2022-08-23T16:10:25.106Z,34.08
2022-08-23T16:12:54.671Z,33.85
2022-08-23T16:15:21.123Z,33.77
2022-08-23T16:17:47.794Z,34.27
2022-08-23T16:20:14.478Z,35.03
2022-08-23T16:22:41.290Z,34.58
2022-08-23T16:25:08.633Z,34.33
2022-08-23T16:27:35.090Z,34.85
2022-08-23T16:30:02.319Z,34.92
2022-08-23T16:32:28.794Z,34.76
2022-08-23T16:34:55.294Z,34.96
2022-08-23T16:37:21.770Z,34.42
2022-08-23T16:39:48.262Z,34.56
2022-08-23T16:42:14.756Z,35.07
2022-08-23T16:44:41.237Z,34.89
2022-08-23T16:47:09.912Z,34.38
2022-08-23T16:49:37.118Z,35.05
2022-08-23T16:52:04.451Z,35.15
2022-08-23T16:54:30.965Z,35.44
2022-08-23T16:56:57.374Z,35.49
2022-08-23T16:59:23.848Z,35.97
2022-08-23T17:01:59.431Z,36.31
2022-08-23T17:04:30.441Z,36.77
2022-08-23T17:06:58.311Z,37.41
2022-08-23T17:09:27.267Z,37.51
2022-08-23T17:11:55.006Z,37.10
2022-08-23T17:14:21.487Z,37.38
2022-08-23T17:16:48.014Z,37.59
2022-08-23T17:19:14.549Z,37.45
2022-08-23T17:21:43.038Z,37.44
2022-08-23T17:24:09.798Z,37.98
2022-08-23T17:26:37.166Z,37.91
2022-08-23T17:29:04.857Z,38.31
2022-08-23T17:31:31.273Z,38.62
2022-08-23T17:34:03.018Z,38.54
2022-08-23T17:36:35.345Z,39.59
2022-08-23T17:39:04.674Z,39.53
2022-08-23T17:41:35.097Z,40.00
2022-08-23T17:44:02.747Z,40.84
2022-08-23T17:46:29.232Z,41.07
2022-08-23T17:48:57.594Z,41.44
2022-08-23T17:51:24.574Z,41.74
2022-08-23T17:53:51.427Z,42.55
2022-08-23T17:56:17.977Z,42.20
2022-08-23T17:58:44.471Z,42.58
2022-08-23T18:01:11.490Z,43.43
2022-08-23T18:03:38.864Z,43.88
2022-08-23T18:06:16.619Z,44.81
2022-08-23T18:08:44.408Z,44.41
2022-08-23T18:11:11.215Z,44.08
2022-08-23T18:13:37.935Z,44.80
2022-08-23T18:16:04.897Z,45.46
2022-08-23T18:18:32.304Z,45.75
2022-08-23T18:20:58.755Z,46.51
2022-08-23T18:23:26.210Z,46.53
2022-08-23T18:25:52.668Z,47.80
2022-08-23T18:28:19.111Z,47.85
2022-08-23T18:30:49.556Z,48.32
2022-08-23T18:33:18.382Z,48.45
2022-08-23T18:35:45.636Z,48.56
2022-08-23T18:38:13.334Z,48.87
2022-08-23T18:40:48.070Z,49.26
2022-08-23T18:43:20.934Z,50.14
2022-08-23T18:45:49.603Z,49.95
2022-08-23T18:48:16.728Z,50.32
2022-08-23T18:50:43.740Z,51.16
2022-08-23T18:53:12.454Z,51.80
2022-08-23T18:55:40.231Z,52.29
2022-08-23T18:58:07.939Z,52.34
2022-08-23T19:00:36.173Z,52.64
2022-08-23T19:03:04.593Z,52.19
2022-08-23T19:05:41.556Z,53.08
2022-08-23T19:08:09.989Z,52.81
2022-08-23T19:10:36.840Z,52.35
2022-08-23T19:13:04.212Z,52.74
2022-08-23T19:15:33.289Z,53.79
2022-08-23T19:17:59.750Z,53.39
2022-08-23T19:20:27.339Z,53.38
2022-08-23T19:22:55.091Z,53.93
2022-08-23T19:25:21.679Z,53.69
2022-08-23T19:27:48.419Z,53.49
2022-08-23T19:30:17.382Z,54.16
2022-08-23T19:32:45.045Z,54.45
2022-08-23T19:35:12.842Z,54.48
2022-08-23T19:37:39.433Z,54.25
2022-08-23T19:40:07.547Z,54.08
2022-08-23T19:42:36.985Z,54.08
2022-08-23T19:45:05.214Z,54.92
2022-08-23T19:47:31.648Z,54.17
2022-08-23T19:49:58.576Z,55.16
2022-08-23T19:52:25.228Z,54.40
2022-08-23T19:54:51.654Z,54.66
2022-08-23T19:57:18.410Z,55.36
2022-08-23T19:59:45.464Z,55.39
2022-08-23T20:02:13.922Z,55.20
2022-08-23T20:04:40.970Z,56.33
2022-08-23T20:07:07.595Z,55.51
2022-08-23T20:09:34.994Z,56.38
2022-08-23T20:12:02.203Z,56.42
2022-08-23T20:14:30.994Z,57.02
2022-08-23T20:16:57.535Z,57.04
2022-08-23T20:19:24.150Z,57.01
2022-08-23T20:21:50.740Z,56.86
2022-08-23T20:24:28.847Z,57.02
2022-08-23T20:27:06.020Z,57.38
2022-08-23T20:29:32.441Z,58.49
2022-08-23T20:32:00.189Z,58.81
2022-08-23T20:34:28.364Z,59.07
2022-08-23T20:36:56.040Z,59.65
2022-08-23T20:39:24.198Z,59.31
2022-08-23T20:41:52.306Z,60.29
2022-08-23T20:44:20.587Z,60.10
2022-08-23T20:46:50.717Z,60.33
2022-08-23T20:49:21.056Z,61.45
2022-08-23T20:51:47.601Z,61.51
2022-08-23T20:54:14.905Z,61.15
2022-08-23T20:56:41.392Z,61.67
2022-08-23T20:59:08.906Z,61.87
2022-08-23T21:01:35.888Z,62.20
2022-08-23T21:04:02.576Z,62.43
2022-08-23T21:06:36.076Z,63.45
2022-08-23T21:09:03.022Z,63.50
2022-08-23T21:11:29.803Z,63.65
2022-08-23T21:13:57.336Z,64.39
2022-08-23T21:16:24.746Z,64.32
2022-08-23T21:18:59.831Z,64.97
2022-08-23T21:21:26.982Z,65.51
2022-08-23T21:23:54.721Z,64.60
2022-08-23T21:26:28.310Z,65.12
2022-08-23T21:28:54.747Z,65.38
2022-08-23T21:31:27.804Z,65.36
2022-08-23T21:33:56.648Z,64.83
2022-08-23T21:36:24.657Z,63.33
2022-08-23T21:38:51.090Z,63.00
2022-08-23T21:41:40.963Z,63.29
2022-08-23T21:44:12.495Z,63.40
2022-08-23T21:46:39.584Z,63.68
2022-08-23T21:49:06.749Z,63.79
2022-08-23T21:51:38.386Z,63.67
2022-08-23T21:54:07.020Z,64.23
2022-08-23T21:56:33.463Z,64.49
2022-08-23T21:59:02.035Z,64.16
2022-08-23T22:01:31.071Z,64.85
2022-08-23T22:03:58.649Z,63.95
2022-08-23T22:06:25.139Z,64.33
2022-08-23T22:08:51.746Z,64.91
2022-08-23T22:11:18.295Z,65.22
2022-08-23T22:13:44.830Z,65.48
2022-08-23T22:16:12.019Z,65.67
2022-08-23T22:18:38.564Z,65.96
2022-08-23T22:21:05.069Z,66.32
2022-08-23T22:23:31.991Z,66.89
2022-08-23T22:26:00.431Z,67.01
2022-08-23T22:28:31.376Z,66.77
2022-08-23T22:31:05.071Z,67.50
2022-08-23T22:33:32.022Z,67.38
2022-08-23T22:36:24.863Z,67.80
2022-08-23T22:38:51.789Z,68.17
2022-08-23T22:41:23.976Z,68.46
2022-08-23T22:43:54.545Z,68.80
2022-08-23T22:46:21.938Z,69.39
2022-08-23T22:48:49.210Z,69.92
2022-08-23T22:51:22.197Z,69.97
2022-08-23T22:53:51.878Z,70.87
2022-08-23T22:56:22.470Z,70.92
2022-08-23T22:58:49.896Z,70.60
2022-08-23T23:01:28.722Z,70.86
2022-08-23T23:03:57.243Z,70.23
2022-08-23T23:06:24.532Z,70.83
2022-08-23T23:08:51.811Z,71.27
2022-08-23T23:11:22.051Z,70.34
2022-08-23T23:13:50.059Z,71.48
2022-08-23T23:16:20.508Z,70.32
2022-08-23T23:19:07.137Z,70.96
2022-08-23T23:21:45.802Z,72.50
2022-08-23T23:24:15.668Z,72.73
2022-08-23T23:26:42.322Z,73.03
2022-08-23T23:29:14.415Z,73.00
2022-08-23T23:31:40.901Z,71.90
2022-08-23T23:34:07.493Z,73.14
2022-08-23T23:36:34.037Z,73.12
2022-08-23T23:39:02.754Z,73.22
2022-08-23T23:41:29.731Z,72.92
2022-08-23T23:43:56.165Z,73.46
2022-08-23T23:46:23.947Z,74.29
2022-08-23T23:48:51.339Z,73.43
2022-08-23T23:51:21.081Z,74.78
2022-08-23T23:53:47.785Z,74.64
2022-08-23T23:56:15.332Z,75.58
2022-08-23T23:58:42.737Z,75.71
